createdAt,value
2019-05-02T00:00:49.839Z,978.085
2019-05-02T00:02:49.926Z,978.058
2019-05-02T00:04:57.007Z,978.027
2019-05-02T00:06:50.456Z,978.023
2019-05-02T00:08:50.427Z,977.991
2019-05-02T00:10:50.532Z,977.960
2019-05-02T00:12:50.527Z,977.924
2019-05-02T00:14:50.634Z,977.927
2019-05-02T00:16:50.718Z,977.904
2019-05-02T00:18:49.726Z,977.899
2019-05-02T00:20:49.858Z,977.869
2019-05-02T00:22:53.594Z,977.857
2019-05-02T00:24:49.648Z,977.837
2019-05-02T00:26:49.797Z,977.811
2019-05-02T00:28:50.158Z,977.811
2019-05-02T00:30:50.283Z,977.818
2019-05-02T00:32:59.570Z,977.797
2019-05-02T00:34:50.114Z,977.778
2019-05-02T00:36:50.293Z,977.750
2019-05-02T00:38:50.465Z,977.721
2019-05-02T00:40:50.540Z,977.688
2019-05-02T00:42:59.578Z,977.652
2019-05-02T00:44:49.844Z,977.638
2019-05-02T00:46:49.978Z,977.638
2019-05-02T00:49:01.678Z,977.622
2019-05-02T00:50:52.639Z,977.625
2019-05-02T00:52:49.699Z,977.607
2019-05-02T00:54:49.749Z,977.586
2019-05-02T00:56:49.878Z,977.561
2019-05-02T00:58:49.977Z,977.549
2019-05-02T01:00:54.919Z,977.529
2019-05-02T01:02:49.953Z,977.522
2019-05-02T01:04:50.345Z,977.508
2019-05-02T01:06:50.984Z,977.478
2019-05-02T01:08:50.036Z,977.486
2019-05-02T01:10:58.017Z,977.469
2019-05-02T01:12:50.177Z,977.455
2019-05-02T01:14:50.174Z,977.432
2019-05-02T01:16:56.404Z,977.407
2019-05-02T01:18:50.569Z,977.383
2019-05-02T01:20:49.738Z,977.381
2019-05-02T01:22:53.784Z,977.361
2019-05-02T01:24:49.893Z,977.365
2019-05-02T01:26:50.171Z,977.360
2019-05-02T01:28:55.881Z,977.344
2019-05-02T01:30:50.090Z,977.336
2019-05-02T01:32:50.187Z,977.336
2019-05-02T01:34:56.540Z,977.340
2019-05-02T01:36:49.875Z,977.348
2019-05-02T01:38:49.859Z,977.340
2019-05-02T01:40:54.936Z,977.329
2019-05-02T01:42:51.306Z,977.315
2019-05-02T01:44:50.380Z,977.293
2019-05-02T01:47:00.028Z,977.260
2019-05-02T01:48:50.107Z,977.213
2019-05-02T01:50:50.169Z,977.198
2019-05-02T01:53:00.127Z,977.162
2019-05-02T01:54:50.245Z,977.141
2019-05-02T01:56:50.557Z,977.115
2019-05-02T01:58:58.860Z,977.101
2019-05-02T02:00:49.995Z,977.088
2019-05-02T02:02:50.063Z,977.058
2019-05-02T02:04:58.029Z,977.036
2019-05-02T02:06:50.396Z,977.008
2019-05-02T02:08:49.754Z,976.991
2019-05-02T02:10:58.094Z,976.978
2019-05-02T02:13:05.391Z,976.963
2019-05-02T02:14:55.658Z,976.948
2019-05-02T02:16:49.861Z,976.952
2019-05-02T02:18:49.861Z,976.951
2019-05-02T02:20:50.499Z,976.940
2019-05-02T02:22:50.539Z,976.931
2019-05-02T02:24:49.598Z,976.921
2019-05-02T02:26:50.139Z,976.910
2019-05-02T02:28:50.165Z,976.895
2019-05-02T02:30:50.284Z,976.889
2019-05-02T02:32:50.382Z,976.905
2019-05-02T02:34:49.792Z,976.925
2019-05-02T02:36:50.013Z,976.949
2019-05-02T02:38:50.215Z,976.943
2019-05-02T02:40:50.292Z,976.930
2019-05-02T02:42:50.422Z,976.913
2019-05-02T02:44:50.448Z,976.897
2019-05-02T02:46:50.442Z,976.884
2019-05-02T02:48:50.548Z,976.888
2019-05-02T02:50:49.800Z,976.880
2019-05-02T02:52:49.845Z,976.879
2019-05-02T02:54:50.012Z,976.852
2019-05-02T02:56:50.203Z,976.845
2019-05-02T02:58:50.384Z,976.834
2019-05-02T03:00:50.420Z,976.824
2019-05-02T03:02:50.612Z,976.820
2019-05-02T03:04:50.009Z,976.837
2019-05-02T03:06:50.227Z,976.845
2019-05-02T03:08:50.285Z,976.847
2019-05-02T03:10:50.346Z,976.839
2019-05-02T03:12:50.427Z,976.843
2019-05-02T03:14:50.466Z,976.848
2019-05-02T03:16:49.966Z,976.847
2019-05-02T03:18:50.094Z,976.830
2019-05-02T03:20:50.115Z,976.824
2019-05-02T03:22:50.287Z,976.804
2019-05-02T03:24:50.270Z,976.801
2019-05-02T03:26:58.530Z,976.786
2019-05-02T03:29:00.917Z,976.755
2019-05-02T03:30:49.955Z,976.727
2019-05-02T03:33:11.121Z,976.714
2019-05-02T03:34:54.603Z,976.720
2019-05-02T03:36:49.957Z,976.710
2019-05-02T03:38:49.989Z,976.698
2019-05-02T03:40:50.147Z,976.697
2019-05-02T03:42:50.206Z,976.708
2019-05-02T03:45:05.233Z,976.700
2019-05-02T03:47:04.560Z,976.720
2019-05-02T03:48:49.779Z,976.728
2019-05-02T03:50:49.893Z,976.736
2019-05-02T03:52:49.994Z,976.744
2019-05-02T03:54:52.967Z,976.726
2019-05-02T03:56:53.607Z,976.736
2019-05-02T03:58:58.612Z,976.739
2019-05-02T04:01:04.030Z,976.742
2019-05-02T04:03:02.352Z,976.727
2019-05-02T04:05:00.817Z,976.707
2019-05-02T04:07:01.464Z,976.687
2019-05-02T04:09:02.174Z,976.691
2019-05-02T04:11:01.790Z,976.699
2019-05-02T04:12:59.983Z,976.706
2019-05-02T04:14:57.548Z,976.724
2019-05-02T04:16:57.507Z,976.724
2019-05-02T04:18:58.445Z,976.740
2019-05-02T04:20:52.308Z,976.736
2019-05-02T04:22:51.141Z,976.745
2019-05-02T04:24:57.221Z,976.753
2019-05-02T04:26:56.561Z,976.769
2019-05-02T04:28:53.891Z,976.767
2019-05-02T04:30:54.162Z,976.789
2019-05-02T04:32:57.817Z,976.789
2019-05-02T04:34:58.261Z,976.779
2019-05-02T04:37:03.943Z,976.778
2019-05-02T04:38:53.121Z,976.778
2019-05-02T04:40:50.224Z,976.796
2019-05-02T04:43:10.504Z,976.798
2019-05-02T04:45:21.615Z,976.795
2019-05-02T04:46:49.778Z,976.800
2019-05-02T04:48:53.415Z,976.819
2019-05-02T04:52:54.407Z,976.798
2019-05-02T04:54:50.574Z,976.789
2019-05-02T04:56:55.694Z,976.788
2019-05-02T04:58:50.027Z,976.795
2019-05-02T05:01:01.979Z,976.789
2019-05-02T05:02:53.508Z,976.806
2019-05-02T05:04:50.042Z,976.803
2019-05-02T05:07:01.539Z,976.803
2019-05-02T05:08:50.327Z,976.818
2019-05-02T05:10:50.478Z,976.798
2019-05-02T05:12:50.471Z,976.809
2019-05-02T05:14:50.563Z,976.817
2019-05-02T05:16:58.073Z,976.830
2019-05-02T05:18:53.457Z,976.838
2019-05-02T05:20:54.523Z,976.830
2019-05-02T05:22:50.485Z,976.830
2019-05-02T05:24:50.512Z,976.827
2019-05-02T05:26:49.650Z,976.830
2019-05-02T05:28:50.649Z,976.830
2019-05-02T05:30:52.474Z,976.831
2019-05-02T05:32:49.645Z,976.837
2019-05-02T05:34:49.988Z,976.835
2019-05-02T05:36:49.725Z,976.818
2019-05-02T05:38:49.783Z,976.803
2019-05-02T05:40:50.526Z,976.766
2019-05-02T05:42:50.480Z,976.749
2019-05-02T05:44:50.576Z,976.740
2019-05-02T05:46:49.946Z,976.733
2019-05-02T05:48:50.044Z,976.749
2019-05-02T05:50:50.076Z,976.734
2019-05-02T05:52:52.252Z,976.742
2019-05-02T05:54:50.329Z,976.731
2019-05-02T05:56:50.491Z,976.743
2019-05-02T05:58:52.844Z,976.774
2019-05-02T06:00:58.451Z,976.789
2019-05-02T06:03:11.332Z,976.798
2019-05-02T06:04:59.057Z,976.789
2019-05-02T06:07:02.010Z,976.801
2019-05-02T06:08:55.562Z,976.772
2019-05-02T06:10:49.643Z,976.762
2019-05-02T06:12:49.618Z,976.771
2019-05-02T06:14:49.668Z,976.768
2019-05-02T06:16:53.383Z,976.776
2019-05-02T06:18:50.437Z,976.787
2019-05-02T06:20:50.510Z,976.785
2019-05-02T06:22:54.892Z,976.778
2019-05-02T06:24:52.305Z,976.763
2019-05-02T06:26:52.095Z,976.763
2019-05-02T06:28:50.086Z,976.775
2019-05-02T06:30:50.169Z,976.788
2019-05-02T06:32:56.698Z,976.799
2019-05-02T06:34:50.145Z,976.798
2019-05-02T06:36:50.361Z,976.805
2019-05-02T06:38:57.827Z,976.803
2019-05-02T06:40:49.990Z,976.783
2019-05-02T06:42:50.090Z,976.779
2019-05-02T06:44:50.111Z,976.765
2019-05-02T06:46:50.229Z,976.737
2019-05-02T06:48:53.790Z,976.717
2019-05-02T06:50:49.800Z,976.718
2019-05-02T06:52:49.817Z,976.736
2019-05-02T06:54:59.082Z,976.723
2019-05-02T06:56:50.393Z,976.747
2019-05-02T06:58:50.546Z,976.747
2019-05-02T07:00:59.232Z,976.726
2019-05-02T07:02:50.353Z,976.704
2019-05-02T07:04:56.107Z,976.698
2019-05-02T07:07:00.006Z,976.702
2019-05-02T07:08:50.850Z,976.683
2019-05-02T07:10:50.275Z,976.688
2019-05-02T07:13:10.611Z,976.681
2019-05-02T07:14:50.034Z,976.637
2019-05-02T07:16:56.579Z,976.623
2019-05-02T07:18:49.966Z,976.642
2019-05-02T07:20:50.045Z,976.653
2019-05-02T07:22:50.079Z,976.621
2019-05-02T07:24:50.201Z,976.560
2019-05-02T07:26:58.092Z,976.550
2019-05-02T07:28:50.282Z,976.533
2019-05-02T07:30:50.306Z,976.512
2019-05-02T07:32:50.365Z,976.521
2019-05-02T07:34:49.826Z,976.541
2019-05-02T07:36:49.945Z,976.541
2019-05-02T07:38:49.984Z,976.541
2019-05-02T07:40:54.440Z,976.542
2019-05-02T07:42:50.433Z,976.525
2019-05-02T07:44:50.499Z,976.499
2019-05-02T07:47:01.949Z,976.499
2019-05-02T07:48:56.739Z,976.499
2019-05-02T07:50:50.896Z,976.492
2019-05-02T07:52:49.834Z,976.502
2019-05-02T07:54:49.844Z,976.506
2019-05-02T07:56:54.806Z,976.494
2019-05-02T07:58:49.925Z,976.459
2019-05-02T08:00:49.947Z,976.449
2019-05-02T08:02:49.937Z,976.478
2019-05-02T08:04:50.308Z,976.488
2019-05-02T08:06:49.603Z,976.507
2019-05-02T08:08:49.731Z,976.521
2019-05-02T08:11:03.316Z,976.520
2019-05-02T08:12:50.048Z,976.516
2019-05-02T08:14:50.096Z,976.498
2019-05-02T08:16:50.334Z,976.500
2019-05-02T08:18:50.412Z,976.491
2019-05-02T08:20:57.349Z,976.499
2019-05-02T08:22:51.049Z,976.483
2019-05-02T08:24:50.083Z,976.470
2019-05-02T08:26:59.678Z,976.471
2019-05-02T08:28:53.417Z,976.446
2019-05-02T08:30:50.425Z,976.462
2019-05-02T08:32:50.449Z,976.459
2019-05-02T08:34:53.655Z,976.451
2019-05-02T08:36:49.899Z,976.464
2019-05-02T08:38:55.584Z,976.460
2019-05-02T08:40:50.595Z,976.462
2019-05-02T08:42:49.627Z,976.466
2019-05-02T08:45:00.435Z,976.457
2019-05-02T08:46:53.427Z,976.425
2019-05-02T08:48:51.114Z,976.428
2019-05-02T08:50:50.242Z,976.384
2019-05-02T08:52:50.282Z,976.398
2019-05-02T08:54:50.294Z,976.386
2019-05-02T08:57:00.541Z,976.416
2019-05-02T08:58:51.335Z,976.336
2019-05-02T09:00:50.414Z,976.309
2019-05-02T09:02:50.441Z,976.314
2019-05-02T09:05:03.658Z,976.279
2019-05-02T09:07:00.551Z,976.258
2019-05-02T09:08:53.009Z,976.218
2019-05-02T09:10:50.089Z,976.186
2019-05-02T09:12:52.274Z,976.202
2019-05-02T09:14:52.341Z,976.217
2019-05-02T09:16:52.554Z,976.255
2019-05-02T09:18:54.506Z,976.267
2019-05-02T09:20:56.859Z,976.248
2019-05-02T09:22:56.250Z,976.228
2019-05-02T09:24:52.209Z,976.205
2019-05-02T09:26:52.150Z,976.205
2019-05-02T09:29:01.521Z,976.166
2019-05-02T09:30:57.562Z,976.122
2019-05-02T09:32:51.990Z,976.083
2019-05-02T09:35:00.833Z,976.072
2019-05-02T09:36:50.261Z,976.063
2019-05-02T09:38:57.842Z,976.041
2019-05-02T09:40:56.403Z,976.031
2019-05-02T09:43:02.663Z,976.024
2019-05-02T09:44:57.218Z,976.024
2019-05-02T09:46:57.345Z,975.994
2019-05-02T09:48:52.207Z,975.989
2019-05-02T09:50:50.261Z,975.939
2019-05-02T09:52:52.677Z,975.943
2019-05-02T09:54:51.783Z,975.934
2019-05-02T09:56:52.569Z,975.898
2019-05-02T09:59:15.673Z,975.861
2019-05-02T10:00:49.804Z,975.859
2019-05-02T10:02:49.864Z,975.849
2019-05-02T10:04:52.585Z,975.876
2019-05-02T10:06:52.656Z,975.884
2019-05-02T10:08:52.214Z,975.856
2019-05-02T10:10:52.433Z,975.863
2019-05-02T10:12:52.306Z,975.838
2019-05-02T10:14:52.201Z,975.818
2019-05-02T10:16:50.062Z,975.791
2019-05-02T10:18:52.584Z,975.749
2019-05-02T10:20:49.762Z,975.699
2019-05-02T10:22:49.788Z,975.646
2019-05-02T10:24:52.167Z,975.653
2019-05-02T10:27:03.876Z,975.627
2019-05-02T10:28:53.622Z,975.595
2019-05-02T10:30:56.945Z,975.556
2019-05-02T10:32:57.499Z,975.556
2019-05-02T10:34:57.054Z,975.484
2019-05-02T10:37:00.311Z,975.488
2019-05-02T10:38:59.467Z,975.456
2019-05-02T10:41:04.120Z,975.460
2019-05-02T10:42:52.478Z,975.427
2019-05-02T10:44:52.340Z,975.427
2019-05-02T10:46:49.634Z,975.387
2019-05-02T10:48:52.731Z,975.359
2019-05-02T10:50:49.808Z,975.359
2019-05-02T10:52:49.768Z,975.328
2019-05-02T10:54:49.837Z,975.274
2019-05-02T10:56:52.038Z,975.279
2019-05-02T10:58:52.508Z,975.265
2019-05-02T11:00:49.642Z,975.241
2019-05-02T11:02:49.705Z,975.238
2019-05-02T11:04:49.991Z,975.218
2019-05-02T11:06:51.916Z,975.207
2019-05-02T11:08:51.932Z,975.193
2019-05-02T11:10:49.693Z,975.152
2019-05-02T11:12:49.712Z,975.141
2019-05-02T11:14:51.894Z,975.103
2019-05-02T11:16:50.017Z,975.093
2019-05-02T11:18:52.846Z,975.079
2019-05-02T11:20:49.943Z,975.044
2019-05-02T11:22:54.790Z,975.021
2019-05-02T11:24:49.831Z,975.006
2019-05-02T11:26:49.952Z,975.005
2019-05-02T11:28:52.406Z,975.014
2019-05-02T11:30:56.866Z,974.949
2019-05-02T11:32:52.359Z,974.957
2019-05-02T11:34:49.853Z,974.945
2019-05-02T11:36:50.103Z,974.933
2019-05-02T11:39:14.850Z,974.910
2019-05-02T11:40:51.884Z,974.854
2019-05-02T11:42:52.351Z,974.882
2019-05-02T11:44:52.574Z,974.887
2019-05-02T11:46:49.857Z,974.860
2019-05-02T11:48:58.869Z,974.864
2019-05-02T11:50:52.467Z,974.866
2019-05-02T11:52:52.594Z,974.857
2019-05-02T11:54:52.371Z,974.829
2019-05-02T11:56:53.762Z,974.765
2019-05-02T11:58:52.618Z,974.735
2019-05-02T12:00:52.452Z,974.749
2019-05-02T12:02:58.495Z,974.772
2019-05-02T12:04:55.711Z,974.783
2019-05-02T12:07:04.706Z,974.791
2019-05-02T12:08:49.934Z,974.786
2019-05-02T12:10:52.225Z,974.775
2019-05-02T12:12:52.795Z,974.754
2019-05-02T12:14:49.903Z,974.754
2019-05-02T12:16:50.080Z,974.734
2019-05-02T12:18:50.179Z,974.723
2019-05-02T12:20:52.371Z,974.725
2019-05-02T12:22:52.222Z,974.725
2019-05-02T12:24:52.160Z,974.713
2019-05-02T12:26:52.642Z,974.680
2019-05-02T12:28:49.962Z,974.680
2019-05-02T12:30:52.205Z,974.682
2019-05-02T12:32:50.207Z,974.632
2019-05-02T12:34:49.716Z,974.627
2019-05-02T12:36:49.842Z,974.590
2019-05-02T12:38:50.190Z,974.576
2019-05-02T12:40:52.329Z,974.546
2019-05-02T12:42:52.378Z,974.573
2019-05-02T12:44:49.718Z,974.575
2019-05-02T12:46:52.054Z,974.545
2019-05-02T12:48:52.307Z,974.535
2019-05-02T12:50:52.511Z,974.557
2019-05-02T12:52:51.971Z,974.596
2019-05-02T12:54:49.676Z,974.601
2019-05-02T12:56:49.912Z,974.586
2019-05-02T12:58:49.978Z,974.568
2019-05-02T13:00:50.369Z,974.563
2019-05-02T13:02:49.906Z,974.564
2019-05-02T13:04:50.333Z,974.551
2019-05-02T13:06:49.822Z,974.550
2019-05-02T13:08:52.056Z,974.516
2019-05-02T13:11:06.605Z,974.499
2019-05-02T13:12:50.339Z,974.470
2019-05-02T13:14:50.306Z,974.420
2019-05-02T13:17:01.957Z,974.404
2019-05-02T13:18:52.227Z,974.404
2019-05-02T13:20:50.236Z,974.355
2019-05-02T13:22:52.892Z,974.338
2019-05-02T13:24:56.439Z,974.321
2019-05-02T13:27:01.614Z,974.319
2019-05-02T13:28:51.890Z,974.266
2019-05-02T13:30:51.918Z,974.239
2019-05-02T13:32:58.091Z,974.240
2019-05-02T13:34:57.306Z,974.232
2019-05-02T13:36:52.212Z,974.215
2019-05-02T13:38:52.102Z,974.188
2019-05-02T13:40:51.976Z,974.187
2019-05-02T13:42:49.948Z,974.176
2019-05-02T13:44:52.818Z,974.152
2019-05-02T13:46:49.912Z,974.126
2019-05-02T13:48:49.948Z,974.126
2019-05-02T13:50:52.058Z,974.063
2019-05-02T13:52:58.218Z,974.045
2019-05-02T13:54:52.457Z,974.019
2019-05-02T13:56:53.242Z,973.969
2019-05-02T13:58:52.158Z,973.929
2019-05-02T14:00:50.235Z,973.934
2019-05-02T14:02:52.196Z,973.930
2019-05-02T14:04:52.371Z,973.909
2019-05-02T14:06:50.406Z,973.898
2019-05-02T14:08:50.034Z,973.872
2019-05-02T14:10:49.988Z,973.847
2019-05-02T14:12:50.055Z,973.837
2019-05-02T14:14:52.143Z,973.830
2019-05-02T14:16:50.311Z,973.755
2019-05-02T14:18:50.291Z,973.755
2019-05-02T14:20:50.358Z,973.727
2019-05-02T14:22:49.633Z,973.701
2019-05-02T14:24:52.087Z,973.685
2019-05-02T14:26:52.710Z,973.679
2019-05-02T14:28:49.873Z,973.688
2019-05-02T14:30:49.936Z,973.643
2019-05-02T14:32:52.596Z,973.639
2019-05-02T14:34:49.945Z,973.580
2019-05-02T14:36:59.429Z,973.569
2019-05-02T14:38:50.188Z,973.527
2019-05-02T14:40:52.291Z,973.530
2019-05-02T14:42:51.076Z,973.522
2019-05-02T14:45:20.311Z,973.490
2019-05-02T14:46:49.818Z,973.464
2019-05-02T14:48:52.634Z,973.452
2019-05-02T14:50:49.722Z,973.423
2019-05-02T14:52:51.847Z,973.412
2019-05-02T14:54:49.834Z,973.369
2019-05-02T14:56:52.487Z,973.348
2019-05-02T14:58:53.070Z,973.333
2019-05-02T15:00:50.051Z,973.341
2019-05-02T15:02:52.114Z,973.296
2019-05-02T15:04:52.668Z,973.281
2019-05-02T15:06:50.008Z,973.265
2019-05-02T15:08:52.726Z,973.265
2019-05-02T15:10:56.827Z,973.229
2019-05-02T15:13:01.132Z,973.218
2019-05-02T15:14:58.913Z,973.207
2019-05-02T15:16:58.606Z,973.205
2019-05-02T15:18:57.221Z,973.181
2019-05-02T15:20:52.307Z,973.190
2019-05-02T15:22:52.512Z,973.189
2019-05-02T15:24:50.471Z,973.192
2019-05-02T15:26:52.282Z,973.192
2019-05-02T15:28:52.304Z,973.181
2019-05-02T15:30:52.463Z,973.155
2019-05-02T15:32:52.312Z,973.135
2019-05-02T15:34:49.588Z,973.104
2019-05-02T15:36:49.825Z,973.087
2019-05-02T15:38:49.875Z,973.050
2019-05-02T15:40:54.006Z,973.050
2019-05-02T15:42:56.547Z,973.069
2019-05-02T15:44:49.846Z,973.058
2019-05-02T15:46:50.076Z,973.018
2019-05-02T15:48:52.224Z,973.008
2019-05-02T15:50:59.982Z,972.995
2019-05-02T15:52:49.843Z,972.988
2019-05-02T15:55:04.067Z,972.945
2019-05-02T15:57:05.587Z,972.933
2019-05-02T15:58:52.362Z,972.916
2019-05-02T16:00:56.426Z,972.875
2019-05-02T16:02:56.199Z,972.861
2019-05-02T16:04:56.883Z,972.876
2019-05-02T16:06:49.971Z,972.923
2019-05-02T16:08:52.447Z,972.940
2019-05-02T16:10:49.921Z,972.934
2019-05-02T16:12:49.946Z,972.929
2019-05-02T16:14:50.010Z,972.923
2019-05-02T16:16:52.348Z,972.940
2019-05-02T16:18:53.091Z,972.916
2019-05-02T16:21:07.865Z,972.884
2019-05-02T16:22:52.495Z,972.858
2019-05-02T16:24:53.773Z,972.869
2019-05-02T16:26:49.950Z,972.866
2019-05-02T16:28:51.762Z,972.840
2019-05-02T16:30:49.788Z,972.815
2019-05-02T16:32:52.059Z,972.804
2019-05-02T16:34:55.011Z,972.803
2019-05-02T16:36:51.984Z,972.825
2019-05-02T16:38:52.102Z,972.825
2019-05-02T16:40:52.722Z,972.811
2019-05-02T16:42:52.083Z,972.810
2019-05-02T16:44:55.104Z,972.806
2019-05-02T16:46:54.467Z,972.807
2019-05-02T16:48:49.685Z,972.811
2019-05-02T16:50:49.707Z,972.814
2019-05-02T16:52:49.811Z,972.812
2019-05-02T16:54:49.869Z,972.836
2019-05-02T16:56:52.237Z,972.852
2019-05-02T16:58:52.389Z,972.825
2019-05-02T17:00:50.398Z,972.823
2019-05-02T17:02:49.732Z,972.823
2019-05-02T17:04:54.960Z,972.798
2019-05-02T17:06:50.106Z,972.784
2019-05-02T17:08:58.843Z,972.779
2019-05-02T17:10:57.173Z,972.784
2019-05-02T17:13:00.263Z,972.810
2019-05-02T17:14:55.030Z,972.817
2019-05-02T17:16:56.093Z,972.816
2019-05-02T17:18:56.713Z,972.810
2019-05-02T17:20:57.192Z,972.836
2019-05-02T17:23:02.263Z,972.830
2019-05-02T17:24:50.476Z,972.826
2019-05-02T17:26:52.089Z,972.814
2019-05-02T17:28:52.262Z,972.805
2019-05-02T17:30:52.625Z,972.791
2019-05-02T17:32:49.640Z,972.781
2019-05-02T17:34:50.041Z,972.759
2019-05-02T17:36:52.103Z,972.760
2019-05-02T17:38:54.689Z,972.810
2019-05-02T17:41:03.378Z,972.806
2019-05-02T17:43:01.423Z,972.821
2019-05-02T17:45:01.611Z,972.822
2019-05-02T17:47:01.699Z,972.822
2019-05-02T17:48:54.010Z,972.816
2019-05-02T17:51:01.666Z,972.800
2019-05-02T17:52:50.352Z,972.800
2019-05-02T17:54:52.700Z,972.795
2019-05-02T17:56:59.080Z,972.779
2019-05-02T17:58:58.563Z,972.788
2019-05-02T18:00:57.956Z,972.794
2019-05-02T18:02:53.446Z,972.801
2019-05-02T18:04:56.009Z,972.812
2019-05-02T18:06:55.437Z,972.811
2019-05-02T18:08:55.559Z,972.802
2019-05-02T18:11:00.017Z,972.792
2019-05-02T18:13:00.192Z,972.793
2019-05-02T18:15:01.463Z,972.795
2019-05-02T18:16:55.813Z,972.811
2019-05-02T18:18:49.843Z,972.815
2019-05-02T18:20:50.050Z,972.824
2019-05-02T18:22:52.227Z,972.812
2019-05-02T18:24:50.319Z,972.827
2019-05-02T18:26:51.900Z,972.827
2019-05-02T18:28:49.895Z,972.892
2019-05-02T18:30:52.596Z,972.911
2019-05-02T18:32:49.943Z,972.917
2019-05-02T18:35:01.269Z,972.933
2019-05-02T18:36:57.295Z,972.968
2019-05-02T18:39:04.983Z,972.993
2019-05-02T18:40:49.662Z,973.015
2019-05-02T18:42:56.406Z,973.041
2019-05-02T18:44:54.714Z,973.041
2019-05-02T18:46:51.998Z,973.070
2019-05-02T18:48:52.120Z,973.082
2019-05-02T18:50:52.860Z,973.120
2019-05-02T18:52:49.911Z,973.132
2019-05-02T18:54:51.913Z,973.147
2019-05-02T18:56:55.628Z,973.136
2019-05-02T18:58:49.835Z,973.131
2019-05-02T19:00:52.238Z,973.137
2019-05-02T19:02:50.320Z,973.122
2019-05-02T19:04:51.874Z,973.132
2019-05-02T19:06:52.106Z,973.131
2019-05-02T19:08:52.516Z,973.122
2019-05-02T19:11:12.137Z,973.124
2019-05-02T19:12:50.357Z,973.141
2019-05-02T19:14:50.441Z,973.155
2019-05-02T19:16:52.299Z,973.193
2019-05-02T19:18:57.687Z,973.225
2019-05-02T19:20:57.931Z,973.225
2019-05-02T19:22:57.160Z,973.255
2019-05-02T19:24:52.539Z,973.272
2019-05-02T19:26:55.077Z,973.295
2019-05-02T19:28:52.580Z,973.298
2019-05-02T19:30:49.724Z,973.293
2019-05-02T19:32:50.155Z,973.266
2019-05-02T19:34:50.454Z,973.253
2019-05-02T19:36:49.791Z,973.265
2019-05-02T19:38:49.747Z,973.260
2019-05-02T19:40:49.842Z,973.276
2019-05-02T19:42:50.013Z,973.280
2019-05-02T19:44:50.444Z,973.295
2019-05-02T19:46:52.214Z,973.280
2019-05-02T19:48:50.255Z,973.272
2019-05-02T19:50:52.069Z,973.252
2019-05-02T19:53:04.533Z,973.234
2019-05-02T19:54:52.060Z,973.221
2019-05-02T19:56:52.684Z,973.223
2019-05-02T19:58:49.708Z,973.221
2019-05-02T20:00:50.038Z,973.216
2019-05-02T20:02:52.146Z,973.208
2019-05-02T20:04:49.598Z,973.196
2019-05-02T20:06:49.667Z,973.183
2019-05-02T20:08:59.344Z,973.183
2019-05-02T20:10:58.601Z,973.217
2019-05-02T20:12:52.932Z,973.249
2019-05-02T20:14:50.031Z,973.270
2019-05-02T20:16:50.197Z,973.343
2019-05-02T20:18:50.192Z,973.395
2019-05-02T20:20:52.229Z,973.430
2019-05-02T20:22:52.568Z,973.494
2019-05-02T20:25:03.094Z,973.512
2019-05-02T20:26:56.266Z,973.531
2019-05-02T20:28:50.350Z,973.593
2019-05-02T20:30:49.815Z,973.592
2019-05-02T20:32:51.958Z,973.551
2019-05-02T20:34:50.342Z,973.537
2019-05-02T20:36:52.073Z,973.552
2019-05-02T20:38:50.118Z,973.563
2019-05-02T20:40:52.466Z,973.591
2019-05-02T20:42:52.305Z,973.592
2019-05-02T20:44:49.990Z,973.610
2019-05-02T20:46:51.865Z,973.629
2019-05-02T20:48:49.919Z,973.668
2019-05-02T20:50:52.252Z,973.707
2019-05-02T20:52:52.511Z,973.710
2019-05-02T20:54:52.659Z,973.719
2019-05-02T20:56:52.207Z,973.712
2019-05-02T20:58:50.219Z,973.685
2019-05-02T21:01:08.741Z,973.678
2019-05-02T21:02:51.790Z,973.678
2019-05-02T21:04:52.463Z,973.645
2019-05-02T21:06:52.911Z,973.651
2019-05-02T21:08:49.927Z,973.635
2019-05-02T21:10:49.947Z,973.640
2019-05-02T21:12:50.101Z,973.671
2019-05-02T21:14:52.468Z,973.678
2019-05-02T21:16:49.717Z,973.684
2019-05-02T21:18:49.719Z,973.672
2019-05-02T21:20:49.977Z,973.667
2019-05-02T21:22:49.951Z,973.673
2019-05-02T21:24:49.947Z,973.683
2019-05-02T21:26:50.068Z,973.701
2019-05-02T21:28:52.374Z,973.724
2019-05-02T21:30:52.630Z,973.731
2019-05-02T21:32:49.705Z,973.739
2019-05-02T21:34:52.253Z,973.739
2019-05-02T21:36:52.142Z,973.719
2019-05-02T21:38:52.369Z,973.726
2019-05-02T21:40:52.544Z,973.731
2019-05-02T21:42:51.891Z,973.734
2019-05-02T21:44:52.069Z,973.726
2019-05-02T21:46:52.128Z,973.734
2019-05-02T21:48:50.212Z,973.728
2019-05-02T21:50:49.674Z,973.728
2019-05-02T21:52:50.305Z,973.754
2019-05-02T21:54:52.379Z,973.769
2019-05-02T21:56:49.699Z,973.791
2019-05-02T21:58:51.588Z,973.807
2019-05-02T22:00:49.927Z,973.840
2019-05-02T22:02:52.417Z,973.871
2019-05-02T22:04:49.849Z,973.897
2019-05-02T22:06:52.510Z,973.918
2019-05-02T22:08:49.602Z,973.912
2019-05-02T22:10:49.690Z,973.923
2019-05-02T22:12:51.886Z,973.937
2019-05-02T22:14:49.997Z,973.937
2019-05-02T22:16:50.347Z,973.972
2019-05-02T22:18:52.255Z,973.985
2019-05-02T22:20:52.536Z,973.995
2019-05-02T22:22:52.206Z,973.990
2019-05-02T22:24:50.368Z,974.015
2019-05-02T22:26:49.913Z,974.021
2019-05-02T22:28:49.909Z,974.024
2019-05-02T22:30:49.683Z,974.006
2019-05-02T22:32:54.497Z,974.007
2019-05-02T22:34:49.792Z,974.023
2019-05-02T22:36:49.763Z,974.031
2019-05-02T22:38:49.831Z,974.055
2019-05-02T22:40:49.937Z,974.065
2019-05-02T22:42:50.004Z,974.147
2019-05-02T22:44:50.320Z,974.160
2019-05-02T22:46:52.393Z,974.181
2019-05-02T22:48:49.606Z,974.166
2019-05-02T22:50:49.947Z,974.166
2019-05-02T22:52:52.407Z,974.185
2019-05-02T22:54:52.567Z,974.199
2019-05-02T22:56:52.259Z,974.190
2019-05-02T22:58:51.760Z,974.189
2019-05-02T23:00:49.776Z,974.217
2019-05-02T23:02:49.791Z,974.229
2019-05-02T23:04:52.949Z,974.243
2019-05-02T23:06:50.164Z,974.240
2019-05-02T23:08:52.554Z,974.232
2019-05-02T23:10:52.195Z,974.240
2019-05-02T23:12:51.938Z,974.238
2019-05-02T23:14:49.986Z,974.234
2019-05-02T23:16:52.301Z,974.225
2019-05-02T23:18:52.132Z,974.185
2019-05-02T23:20:50.258Z,974.179
2019-05-02T23:22:52.548Z,974.178
2019-05-02T23:24:49.740Z,974.178
2019-05-02T23:26:52.066Z,974.166
2019-05-02T23:28:51.943Z,974.165
2019-05-02T23:30:52.073Z,974.168
2019-05-02T23:32:51.925Z,974.170
2019-05-02T23:34:52.408Z,974.176
2019-05-02T23:36:49.796Z,974.178
2019-05-02T23:38:52.366Z,974.155
2019-05-02T23:40:50.342Z,974.150
2019-05-02T23:42:49.633Z,974.156
2019-05-02T23:44:51.564Z,974.155
2019-05-02T23:46:51.803Z,974.150
2019-05-02T23:48:49.954Z,974.155
2019-05-02T23:50:52.170Z,974.176
2019-05-02T23:52:50.240Z,974.213
2019-05-02T23:54:52.792Z,974.236
2019-05-02T23:56:50.029Z,974.262
2019-05-02T23:58:52.188Z,974.277
